createdAt,value
2023-05-12T00:02:13.315Z,11.72
2023-05-12T00:04:41.959Z,11.68
2023-05-12T00:07:10.223Z,11.67
2023-05-12T00:09:38.613Z,11.63
2023-05-12T00:12:07.454Z,11.62
2023-05-12T00:14:36.599Z,11.60
2023-05-12T00:17:06.820Z,11.56
2023-05-12T00:19:37.139Z,11.58
2023-05-12T00:22:05.551Z,11.58
2023-05-12T00:24:33.761Z,11.56
2023-05-12T00:27:02.247Z,11.53
2023-05-12T00:29:30.876Z,11.49
2023-05-12T00:32:02.791Z,11.47
2023-05-12T00:34:30.964Z,11.45
2023-05-12T00:36:59.289Z,11.42
2023-05-12T00:39:27.687Z,11.39
2023-05-12T00:41:57.943Z,11.35
2023-05-12T00:44:26.311Z,11.32
2023-05-12T00:46:56.079Z,11.27
2023-05-12T00:49:37.040Z,11.24
2023-05-12T00:52:06.784Z,11.22
2023-05-12T00:54:55.948Z,11.19
2023-05-12T00:57:28.090Z,11.15
2023-05-12T00:59:56.676Z,11.11
2023-05-12T01:02:25.853Z,11.09
2023-05-12T01:04:57.246Z,11.09
2023-05-12T01:07:26.844Z,11.09
2023-05-12T01:10:00.690Z,11.07
2023-05-12T01:12:29.955Z,11.07
2023-05-12T01:14:58.882Z,11.05
2023-05-12T01:17:36.283Z,11.02
2023-05-12T01:20:12.197Z,10.99
2023-05-12T01:22:41.553Z,11.00
2023-05-12T01:25:13.317Z,10.98
2023-05-12T01:27:43.397Z,10.95
2023-05-12T01:30:16.208Z,10.91
2023-05-12T01:32:45.190Z,10.89
2023-05-12T01:35:14.104Z,10.87
2023-05-12T01:37:42.961Z,10.86
2023-05-12T01:40:12.558Z,10.84
2023-05-12T01:42:43.363Z,10.84
2023-05-12T01:45:12.010Z,10.84
2023-05-12T01:47:40.314Z,10.82
2023-05-12T01:50:08.937Z,10.81
2023-05-12T01:52:37.240Z,10.79
2023-05-12T01:55:06.552Z,10.76
2023-05-12T01:57:38.362Z,10.74
2023-05-12T02:00:08.794Z,10.74
2023-05-12T02:02:40.210Z,10.72
2023-05-12T02:05:09.879Z,10.72
2023-05-12T02:07:38.661Z,10.69
2023-05-12T02:10:09.334Z,10.67
2023-05-12T02:12:39.007Z,10.62
2023-05-12T02:15:07.909Z,10.62
2023-05-12T02:17:36.222Z,10.59
2023-05-12T02:20:05.589Z,10.58
2023-05-12T02:22:34.184Z,10.58
2023-05-12T02:25:02.367Z,10.57
2023-05-12T02:27:32.680Z,10.52
2023-05-12T02:30:00.898Z,10.45
2023-05-12T02:32:30.775Z,10.40
2023-05-12T02:34:59.500Z,10.37
2023-05-12T02:37:28.040Z,10.32
2023-05-12T02:39:56.870Z,10.24
2023-05-12T02:42:29.241Z,10.21
2023-05-12T02:44:57.568Z,10.16
2023-05-12T02:47:25.850Z,10.16
2023-05-12T02:49:55.857Z,10.14
2023-05-12T02:52:24.584Z,10.10
2023-05-12T02:54:57.161Z,10.06
2023-05-12T02:57:34.442Z,10.02
2023-05-12T03:00:07.641Z,9.95
2023-05-12T03:02:38.789Z,9.94
2023-05-12T03:05:09.495Z,9.90
2023-05-12T03:07:37.778Z,9.88
2023-05-12T03:10:06.732Z,9.85
2023-05-12T03:12:34.960Z,9.86
2023-05-12T03:15:04.872Z,9.84
2023-05-12T03:17:33.144Z,9.83
2023-05-12T03:20:01.927Z,9.80
2023-05-12T03:22:30.891Z,9.78
2023-05-12T03:25:01.760Z,9.75
2023-05-12T03:27:31.943Z,9.73
2023-05-12T03:30:01.416Z,9.70
2023-05-12T03:32:30.555Z,9.67
2023-05-12T03:34:58.908Z,9.65
2023-05-12T03:37:27.893Z,9.63
2023-05-12T03:39:58.863Z,9.60
2023-05-12T03:42:27.132Z,9.55
2023-05-12T03:44:55.733Z,9.49
2023-05-12T03:47:25.566Z,9.44
2023-05-12T03:49:54.828Z,9.39
2023-05-12T03:52:23.579Z,9.34
2023-05-12T03:54:52.310Z,9.27
2023-05-12T03:57:20.989Z,9.16
2023-05-12T03:59:49.287Z,9.04
2023-05-12T04:02:17.784Z,8.94
2023-05-12T04:04:47.493Z,8.86
2023-05-12T04:07:16.305Z,8.79
2023-05-12T04:09:44.783Z,8.75
2023-05-12T04:12:13.063Z,8.70
2023-05-12T04:14:43.504Z,8.67
2023-05-12T04:17:20.049Z,8.66
2023-05-12T04:19:48.770Z,8.68
2023-05-12T04:22:16.881Z,8.69
2023-05-12T04:24:45.708Z,8.73
2023-05-12T04:27:14.952Z,8.77
2023-05-12T04:29:46.626Z,8.81
2023-05-12T04:32:18.577Z,8.87
2023-05-12T04:34:48.272Z,8.95
2023-05-12T04:37:16.536Z,9.07
2023-05-12T04:40:02.368Z,9.18
2023-05-12T04:42:31.149Z,9.35
2023-05-12T04:44:59.833Z,9.51
2023-05-12T04:47:31.371Z,9.69
2023-05-12T04:50:02.843Z,9.85
2023-05-12T04:52:34.178Z,10.01
2023-05-12T04:55:02.459Z,10.19
2023-05-12T04:57:30.757Z,10.34
2023-05-12T04:59:59.601Z,10.46
2023-05-12T05:02:28.273Z,10.60
2023-05-12T05:04:57.293Z,10.81
2023-05-12T05:07:25.658Z,10.84
2023-05-12T05:09:54.677Z,10.85
2023-05-12T05:12:23.704Z,10.85
2023-05-12T05:14:52.318Z,10.91
2023-05-12T05:17:20.830Z,11.02
2023-05-12T05:19:59.359Z,11.13
2023-05-12T05:22:32.102Z,11.22
2023-05-12T05:25:17.517Z,11.30
2023-05-12T05:27:46.823Z,11.35
2023-05-12T05:30:15.398Z,11.49
2023-05-12T05:32:46.758Z,11.85
2023-05-12T05:35:15.297Z,12.22
2023-05-12T05:37:53.961Z,12.74
2023-05-12T05:40:38.808Z,13.46
2023-05-12T05:43:17.793Z,13.75
2023-05-12T05:45:46.318Z,13.89
2023-05-12T05:48:14.708Z,13.99
2023-05-12T05:50:43.213Z,14.05
2023-05-12T05:53:11.843Z,13.97
2023-05-12T05:55:40.517Z,14.14
2023-05-12T05:58:09.102Z,14.34
2023-05-12T06:00:40.793Z,14.44
2023-05-12T06:03:22.302Z,14.64
2023-05-12T06:05:50.880Z,14.81
2023-05-12T06:08:19.587Z,15.01
2023-05-12T06:10:48.165Z,15.20
2023-05-12T06:13:16.374Z,15.36
2023-05-12T06:15:45.198Z,15.40
2023-05-12T06:18:13.351Z,15.47
2023-05-12T06:20:42.401Z,15.35
2023-05-12T06:23:10.979Z,15.45
2023-05-12T06:25:39.332Z,15.60
2023-05-12T06:28:08.655Z,15.69
2023-05-12T06:30:36.958Z,15.78
2023-05-12T06:33:06.075Z,15.89
2023-05-12T06:35:34.450Z,15.75
2023-05-12T06:38:02.623Z,15.71
2023-05-12T06:40:30.931Z,15.73
2023-05-12T06:42:59.195Z,15.80
2023-05-12T06:45:27.929Z,15.95
2023-05-12T06:47:57.887Z,15.90
2023-05-12T06:50:26.396Z,16.04
2023-05-12T06:52:54.728Z,16.15
2023-05-12T06:55:23.499Z,16.15
2023-05-12T06:57:55.865Z,15.96
2023-05-12T07:00:25.961Z,15.85
2023-05-12T07:02:54.199Z,15.71
2023-05-12T07:05:22.901Z,15.73
2023-05-12T07:07:52.470Z,15.77
2023-05-12T07:10:23.782Z,15.66
2023-05-12T07:12:52.601Z,15.79
2023-05-12T07:15:21.252Z,15.83
2023-05-12T07:17:50.802Z,16.06
2023-05-12T07:20:19.246Z,16.19
2023-05-12T07:22:47.602Z,16.16
2023-05-12T07:25:20.271Z,16.21
2023-05-12T07:27:49.411Z,16.22
2023-05-12T07:30:17.858Z,16.37
2023-05-12T07:32:46.721Z,16.45
2023-05-12T07:35:14.985Z,16.53
2023-05-12T07:37:45.245Z,16.58
2023-05-12T07:40:13.571Z,16.70
2023-05-12T07:42:41.709Z,16.88
2023-05-12T07:45:10.229Z,17.00
2023-05-12T07:47:38.621Z,17.09
2023-05-12T07:50:07.964Z,17.29
2023-05-12T07:52:36.092Z,17.59
2023-05-12T07:55:04.915Z,17.60
2023-05-12T07:57:33.310Z,17.48
2023-05-12T08:00:05.123Z,17.56
2023-05-12T08:02:33.610Z,17.71
2023-05-12T08:05:02.133Z,17.76
2023-05-12T08:07:31.196Z,18.04
2023-05-12T08:09:59.365Z,18.49
2023-05-12T08:12:35.538Z,18.57
2023-05-12T08:15:04.189Z,18.37
2023-05-12T08:17:32.448Z,18.36
2023-05-12T08:20:04.724Z,18.32
2023-05-12T08:22:34.079Z,18.19
2023-05-12T08:25:03.376Z,18.35
2023-05-12T08:27:32.242Z,18.24
2023-05-12T08:30:00.914Z,18.21
2023-05-12T08:32:29.623Z,18.39
2023-05-12T08:34:58.063Z,18.51
2023-05-12T08:37:26.670Z,18.79
2023-05-12T08:39:54.975Z,19.06
2023-05-12T08:42:44.400Z,19.31
2023-05-12T08:45:13.375Z,19.29
2023-05-12T08:47:42.977Z,19.23
2023-05-12T08:50:13.216Z,19.20
2023-05-12T08:52:44.591Z,19.23
2023-05-12T08:55:14.420Z,19.28
2023-05-12T08:57:45.897Z,19.32
2023-05-12T09:00:15.428Z,19.36
2023-05-12T09:02:52.126Z,19.39
2023-05-12T09:05:23.499Z,19.42
2023-05-12T09:07:55.224Z,19.24
2023-05-12T09:10:35.038Z,19.37
2023-05-12T09:13:16.793Z,19.60
2023-05-12T09:15:47.780Z,19.85
2023-05-12T09:18:16.298Z,19.87
2023-05-12T09:20:44.874Z,19.86
2023-05-12T09:23:20.465Z,20.01
2023-05-12T09:26:01.288Z,20.11
2023-05-12T09:28:42.017Z,19.98
2023-05-12T09:31:16.511Z,19.97
2023-05-12T09:33:45.087Z,19.96
2023-05-12T09:36:23.266Z,20.03
2023-05-12T09:39:07.313Z,19.99
2023-05-12T09:41:37.964Z,20.05
2023-05-12T09:44:08.744Z,20.07
2023-05-12T09:46:38.694Z,20.22
2023-05-12T09:49:07.007Z,20.27
2023-05-12T09:51:35.660Z,20.56
2023-05-12T09:54:06.409Z,20.89
2023-05-12T09:56:38.515Z,21.08
2023-05-12T09:59:07.135Z,21.02
2023-05-12T10:01:36.128Z,20.66
2023-05-12T10:04:08.513Z,20.52
2023-05-12T10:06:47.533Z,20.49
2023-05-12T10:09:31.684Z,20.34
2023-05-12T10:12:01.871Z,20.39
2023-05-12T10:14:31.502Z,20.27
2023-05-12T10:17:00.616Z,20.25
2023-05-12T10:19:32.930Z,20.49
2023-05-12T10:22:01.955Z,20.72
2023-05-12T10:24:30.427Z,21.03
2023-05-12T10:26:59.783Z,21.27
2023-05-12T10:29:31.243Z,21.58
2023-05-12T10:32:01.455Z,21.70
2023-05-12T10:34:38.197Z,21.63
2023-05-12T10:37:11.107Z,21.58
2023-05-12T10:39:51.777Z,21.25
2023-05-12T10:42:26.175Z,21.14
2023-05-12T10:44:56.494Z,21.18
2023-05-12T10:47:29.540Z,21.34
2023-05-12T10:50:00.938Z,21.31
2023-05-12T10:52:29.362Z,21.20
2023-05-12T10:55:02.846Z,20.92
2023-05-12T10:57:33.478Z,21.11
2023-05-12T11:00:03.633Z,21.43
2023-05-12T11:02:36.070Z,21.45
2023-05-12T11:05:13.004Z,21.48
2023-05-12T11:07:50.199Z,21.29
2023-05-12T11:10:20.054Z,21.47
2023-05-12T11:12:49.978Z,21.45
2023-05-12T11:15:18.437Z,21.49
2023-05-12T11:20:30.847Z,21.42
2023-05-12T11:22:59.511Z,21.23
2023-05-12T11:25:31.325Z,21.16
2023-05-12T11:27:59.976Z,21.11
2023-05-12T11:30:28.879Z,21.08
2023-05-12T11:33:03.652Z,21.27
2023-05-12T11:35:32.689Z,21.47
2023-05-12T11:38:03.138Z,21.72
2023-05-12T11:40:31.422Z,21.89
2023-05-12T11:43:10.588Z,21.66
2023-05-12T11:45:38.847Z,21.23
2023-05-12T11:48:12.915Z,20.73
2023-05-12T11:50:46.289Z,20.41
2023-05-12T11:53:18.981Z,20.56
2023-05-12T11:55:51.671Z,21.06
2023-05-12T11:58:26.728Z,21.24
2023-05-12T12:00:57.610Z,20.98
2023-05-12T12:03:26.249Z,20.64
2023-05-12T12:06:02.717Z,20.40
2023-05-12T12:08:31.999Z,20.17
2023-05-12T12:11:03.445Z,20.27
2023-05-12T12:13:32.574Z,20.67
2023-05-12T12:16:01.028Z,21.13
2023-05-12T12:18:29.356Z,21.26
2023-05-12T12:20:57.771Z,20.93
2023-05-12T12:23:26.141Z,20.34
2023-05-12T12:25:54.397Z,20.15
2023-05-12T12:28:22.500Z,20.37
2023-05-12T12:30:50.841Z,20.60
2023-05-12T12:33:20.654Z,20.98
2023-05-12T12:35:49.544Z,21.36
2023-05-12T12:38:17.815Z,21.83
2023-05-12T12:40:46.056Z,22.05
2023-05-12T12:43:14.491Z,21.88
2023-05-12T12:45:42.714Z,21.50
2023-05-12T12:48:11.394Z,21.43
2023-05-12T12:50:43.149Z,21.75
2023-05-12T12:53:11.385Z,21.84
2023-05-12T12:55:40.221Z,21.69
2023-05-12T12:58:09.370Z,21.71
2023-05-12T13:00:38.035Z,21.95
2023-05-12T13:03:08.347Z,22.17
2023-05-12T13:05:36.774Z,22.09
2023-05-12T13:08:05.102Z,21.64
2023-05-12T13:10:33.776Z,21.40
2023-05-12T13:13:02.452Z,21.46
2023-05-12T13:15:32.564Z,21.29
2023-05-12T13:22:37.570Z,21.74
2023-05-12T13:25:11.430Z,21.69
2023-05-12T13:27:39.721Z,21.46
2023-05-12T13:30:08.748Z,20.99
2023-05-12T13:32:38.010Z,20.61
2023-05-12T13:35:06.288Z,20.45
2023-05-12T13:37:34.355Z,20.39
2023-05-12T13:40:02.580Z,20.33
2023-05-12T13:42:32.705Z,20.30
2023-05-12T13:45:01.108Z,20.27
2023-05-12T13:47:29.505Z,20.34
2023-05-12T13:49:57.980Z,20.55
2023-05-12T13:52:26.196Z,20.88
2023-05-12T13:54:54.482Z,21.32
2023-05-12T13:57:22.666Z,21.65
2023-05-12T13:59:52.290Z,21.63
2023-05-12T14:02:21.139Z,21.28
2023-05-12T14:04:50.012Z,20.95
2023-05-12T14:07:19.526Z,20.54
2023-05-12T14:09:48.203Z,20.30
2023-05-12T14:12:16.465Z,20.12
2023-05-12T14:14:49.981Z,19.97
2023-05-12T14:17:18.937Z,19.84
2023-05-12T14:19:47.247Z,19.78
2023-05-12T14:22:25.275Z,19.81
2023-05-12T14:24:56.033Z,19.90
2023-05-12T14:27:24.396Z,19.99
2023-05-12T14:29:52.795Z,20.13
2023-05-12T14:32:21.074Z,20.34
2023-05-12T14:34:49.288Z,20.51
2023-05-12T14:37:17.567Z,20.53
2023-05-12T14:39:46.290Z,20.35
2023-05-12T14:42:14.721Z,20.16
2023-05-12T14:44:45.634Z,20.18
2023-05-12T14:47:13.949Z,20.31
2023-05-12T14:49:43.495Z,20.49
2023-05-12T14:52:13.745Z,20.59
2023-05-12T14:54:42.597Z,20.59
2023-05-12T14:57:10.899Z,20.62
2023-05-12T14:59:39.431Z,20.59
2023-05-12T15:02:08.339Z,20.53
2023-05-12T15:04:37.213Z,20.40
2023-05-12T15:07:12.204Z,20.32
2023-05-12T15:09:40.558Z,20.25
2023-05-12T15:12:09.453Z,20.20
2023-05-12T15:14:37.866Z,20.14
2023-05-12T15:17:06.358Z,20.18
2023-05-12T15:19:35.451Z,20.22
2023-05-12T15:22:03.979Z,20.21
2023-05-12T15:24:32.305Z,20.24
2023-05-12T15:27:00.764Z,20.28
2023-05-12T15:29:29.392Z,20.32
2023-05-12T15:32:00.355Z,20.31
2023-05-12T15:34:28.909Z,20.24
2023-05-12T15:36:58.783Z,20.22
2023-05-12T15:39:27.080Z,20.21
2023-05-12T15:41:55.309Z,20.16
2023-05-12T15:44:23.682Z,20.08
2023-05-12T15:46:52.524Z,19.99
2023-05-12T15:49:21.343Z,19.92
2023-05-12T15:51:49.747Z,19.90
2023-05-12T15:54:17.912Z,19.89
2023-05-12T15:56:49.602Z,19.87
2023-05-12T15:59:17.993Z,19.87
2023-05-12T16:01:46.366Z,19.87
2023-05-12T16:04:15.463Z,19.90
2023-05-12T16:06:43.845Z,19.89
2023-05-12T16:09:12.733Z,19.88
2023-05-12T16:11:41.028Z,19.92
2023-05-12T16:14:09.284Z,19.99
2023-05-12T16:16:38.516Z,20.08
2023-05-12T16:19:06.804Z,20.14
2023-05-12T16:21:35.284Z,20.14
2023-05-12T16:24:03.672Z,20.10
2023-05-12T16:26:32.005Z,20.01
2023-05-12T16:29:00.317Z,19.95
2023-05-12T16:31:30.973Z,19.86
2023-05-12T16:33:59.270Z,19.79
2023-05-12T16:36:30.008Z,19.77
2023-05-12T16:38:59.726Z,19.73
2023-05-12T16:41:28.886Z,19.65
2023-05-12T16:44:00.978Z,19.57
2023-05-12T16:46:32.782Z,19.47
2023-05-12T16:49:04.224Z,19.39
2023-05-12T16:51:39.695Z,19.35
2023-05-12T16:54:20.047Z,19.32
2023-05-12T17:00:25.534Z,19.23
2023-05-12T17:29:37.368Z,18.96
2023-05-12T17:32:06.156Z,18.88
2023-05-12T17:34:34.753Z,18.82
2023-05-12T17:37:06.115Z,18.80
2023-05-12T17:39:34.419Z,18.77
2023-05-12T17:42:05.231Z,18.74
2023-05-12T17:44:33.734Z,18.71
2023-05-12T17:47:02.991Z,18.66
2023-05-12T17:49:32.215Z,18.60
2023-05-12T17:52:04.147Z,18.56
2023-05-12T17:54:32.846Z,18.52
2023-05-12T17:57:02.354Z,18.48
2023-05-12T17:59:34.573Z,18.45
2023-05-12T18:02:03.636Z,18.44
2023-05-12T18:04:32.063Z,18.39
2023-05-12T18:07:00.457Z,18.35
2023-05-12T18:10:03.843Z,18.25
2023-05-12T18:12:35.099Z,18.15
2023-05-12T18:16:33.782Z,18.07
2023-05-12T18:19:18.978Z,17.95
2023-05-12T18:25:34.961Z,17.81
2023-05-12T18:42:26.622Z,17.40
2023-05-12T18:44:56.443Z,17.34
2023-05-12T18:47:25.270Z,17.30
2023-05-12T18:49:53.789Z,17.23
2023-05-12T18:52:31.804Z,17.14
2023-05-12T18:55:00.611Z,17.06
2023-05-12T18:57:29.596Z,16.99
2023-05-12T18:59:57.876Z,16.93
2023-05-12T19:02:26.583Z,16.85
2023-05-12T19:04:56.066Z,16.80
2023-05-12T19:07:25.082Z,16.76
2023-05-12T19:09:54.004Z,16.71
2023-05-12T19:12:24.710Z,16.65
2023-05-12T19:14:53.432Z,16.62
2023-05-12T19:17:22.285Z,16.59
2023-05-12T19:19:53.966Z,16.55
2023-05-12T19:22:24.908Z,16.50
2023-05-12T19:25:00.944Z,16.43
2023-05-12T19:27:30.973Z,16.35
2023-05-12T19:30:02.591Z,16.33
2023-05-12T19:32:34.389Z,16.30
2023-05-12T19:35:07.248Z,16.30
2023-05-12T19:37:35.690Z,16.30
2023-05-12T19:40:07.797Z,16.29
2023-05-12T19:42:38.047Z,16.25
2023-05-12T19:45:06.867Z,16.21
2023-05-12T19:47:38.883Z,16.15
2023-05-12T19:50:18.739Z,16.11
2023-05-12T19:52:50.986Z,16.06
2023-05-12T19:55:24.773Z,16.04
2023-05-12T19:58:16.841Z,16.03
2023-05-12T20:00:45.283Z,16.01
2023-05-12T20:03:21.730Z,15.99
2023-05-12T20:05:53.751Z,15.96
2023-05-12T20:08:22.066Z,15.91
2023-05-12T20:10:50.235Z,15.86
2023-05-12T20:13:39.143Z,15.81
2023-05-12T20:16:07.513Z,15.79
2023-05-12T20:18:35.979Z,15.75
2023-05-12T20:21:04.488Z,15.71
2023-05-12T20:23:37.443Z,15.68
2023-05-12T20:26:05.844Z,15.65
2023-05-12T20:31:23.936Z,15.56
2023-05-12T20:33:59.314Z,15.51
2023-05-12T20:36:30.630Z,15.43
2023-05-12T20:39:10.552Z,15.33
2023-05-12T20:41:43.835Z,15.26
2023-05-12T20:44:12.550Z,15.23
2023-05-12T20:46:50.930Z,15.20
2023-05-12T20:49:19.490Z,15.10
2023-05-12T20:51:48.577Z,15.02
2023-05-12T20:54:25.719Z,14.97
2023-05-12T20:56:54.100Z,14.92
2023-05-12T20:59:33.637Z,14.85
2023-05-12T21:02:02.639Z,14.77
2023-05-12T21:04:31.115Z,14.70
2023-05-12T21:06:59.366Z,14.67
2023-05-12T21:09:30.230Z,14.63
2023-05-12T21:11:59.205Z,14.57
2023-05-12T21:14:47.880Z,14.54
2023-05-12T21:17:17.493Z,14.50
2023-05-12T21:19:45.935Z,14.46
2023-05-12T21:22:19.508Z,14.40
2023-05-12T21:24:49.826Z,14.37
2023-05-12T21:27:21.227Z,14.31
2023-05-12T21:29:55.163Z,14.25
2023-05-12T21:32:28.151Z,14.16
2023-05-12T21:35:04.186Z,14.12
2023-05-12T21:37:32.491Z,14.08
2023-05-12T21:40:00.849Z,14.08
2023-05-12T21:42:30.339Z,14.03
2023-05-12T21:44:58.549Z,14.00
2023-05-12T21:47:27.344Z,13.95
2023-05-12T21:49:57.092Z,13.92
2023-05-12T21:52:25.320Z,13.85
2023-05-12T21:54:53.580Z,13.81
2023-05-12T21:57:31.220Z,13.81
2023-05-12T22:00:04.316Z,13.77
2023-05-12T22:02:32.856Z,13.73
2023-05-12T22:05:13.611Z,13.69
2023-05-12T22:07:42.210Z,13.65
2023-05-12T22:10:10.848Z,13.63
2023-05-12T22:12:42.640Z,13.60
2023-05-12T22:15:11.631Z,13.55
2023-05-12T22:17:40.043Z,13.53
2023-05-12T22:20:12.633Z,13.48
2023-05-12T22:22:40.906Z,13.44
2023-05-12T22:25:09.782Z,13.41
2023-05-12T22:27:41.373Z,13.39
2023-05-12T22:30:10.730Z,13.36
2023-05-12T22:32:39.700Z,13.32
2023-05-12T22:35:09.098Z,13.26
2023-05-12T22:37:37.519Z,13.23
2023-05-12T22:40:09.724Z,13.20
2023-05-12T22:42:38.066Z,13.15
2023-05-12T22:45:10.149Z,13.09
2023-05-12T22:47:39.281Z,13.04
2023-05-12T22:50:08.029Z,13.03
2023-05-12T22:52:36.391Z,12.99
2023-05-12T22:55:05.109Z,12.93
2023-05-12T22:57:35.678Z,12.90
2023-05-12T23:00:05.281Z,12.86
2023-05-12T23:02:46.932Z,12.83
2023-05-12T23:05:16.281Z,12.79
2023-05-12T23:08:01.992Z,12.75
2023-05-12T23:10:33.875Z,12.69
2023-05-12T23:13:11.872Z,12.64
2023-05-12T23:15:43.411Z,12.59
2023-05-12T23:18:32.202Z,12.57
2023-05-12T23:21:13.841Z,12.56
2023-05-12T23:23:57.778Z,12.53
2023-05-12T23:26:31.155Z,12.48
2023-05-12T23:29:06.909Z,12.47
2023-05-12T23:31:37.623Z,12.47
2023-05-12T23:34:05.910Z,12.48
2023-05-12T23:36:49.835Z,12.46
2023-05-12T23:39:26.198Z,12.39
2023-05-12T23:42:06.680Z,12.32
2023-05-12T23:44:45.660Z,12.30
2023-05-12T23:47:23.886Z,12.25
2023-05-12T23:49:58.800Z,12.21
2023-05-12T23:52:36.494Z,12.20
2023-05-12T23:55:11.957Z,12.19
2023-05-12T23:57:40.873Z,12.15
